createdAt,value
2017-11-19T00:02:03.202Z,11.65
2017-11-19T00:04:30.703Z,13.25
2017-11-19T00:06:58.586Z,10.25
2017-11-19T00:09:26.062Z,11.75
2017-11-19T00:11:53.614Z,10.50
2017-11-19T00:14:21.088Z,10.57
2017-11-19T00:16:48.531Z,12.52
2017-11-19T00:19:16.017Z,12.88
2017-11-19T00:21:48.260Z,10.50
2017-11-19T00:24:15.827Z,12.27
2017-11-19T00:26:43.285Z,11.80
2017-11-19T00:29:10.732Z,12.05
2017-11-19T00:31:38.996Z,11.60
2017-11-19T00:34:06.486Z,11.93
2017-11-19T00:36:34.729Z,12.93
2017-11-19T00:39:02.232Z,12.50
2017-11-19T00:41:29.705Z,12.65
2017-11-19T00:43:57.173Z,13.40
2017-11-19T00:46:24.637Z,13.82
2017-11-19T00:48:52.082Z,13.60
2017-11-19T00:51:19.668Z,12.37
2017-11-19T00:53:47.132Z,14.40
2017-11-19T00:56:14.574Z,12.10
2017-11-19T00:58:42.041Z,13.70
2017-11-19T01:01:09.493Z,12.40
2017-11-19T01:03:36.964Z,14.43
2017-11-19T01:06:05.411Z,12.50
2017-11-19T01:08:32.901Z,13.85
2017-11-19T01:11:00.399Z,12.20
2017-11-19T01:13:27.881Z,12.68
2017-11-19T01:15:55.419Z,11.70
2017-11-19T01:18:51.237Z,11.25
2017-11-19T01:21:18.811Z,11.20
2017-11-19T01:23:46.330Z,12.75
2017-11-19T01:38:04.831Z,12.00
2017-11-19T01:40:32.285Z,11.95
2017-11-19T01:45:32.748Z,12.48
2017-11-19T01:48:00.418Z,10.57
2017-11-19T01:50:27.952Z,12.52
2017-11-19T01:52:56.259Z,12.50
2017-11-19T01:55:23.950Z,12.30
2017-11-19T01:57:51.884Z,10.50
2017-11-19T02:00:19.369Z,11.32
2017-11-19T02:02:46.922Z,12.80
2017-11-19T02:05:14.482Z,11.75
2017-11-19T02:07:42.005Z,13.10
2017-11-19T02:10:10.293Z,11.18
2017-11-19T02:12:37.835Z,12.05
2017-11-19T02:15:05.481Z,9.75
2017-11-19T02:17:33.013Z,11.73
2017-11-19T02:20:00.563Z,12.05
2017-11-19T02:22:28.043Z,11.25
2017-11-19T02:24:55.615Z,12.00
2017-11-19T02:27:23.105Z,10.32
2017-11-19T02:29:50.650Z,11.50
2017-11-19T02:32:18.177Z,10.02
2017-11-19T02:34:46.178Z,10.25
2017-11-19T02:37:14.496Z,10.40
2017-11-19T02:39:42.106Z,10.75
2017-11-19T02:42:09.620Z,11.88
2017-11-19T02:44:37.142Z,10.82
2017-11-19T02:47:04.685Z,11.52
2017-11-19T02:49:32.972Z,10.70
2017-11-19T02:52:00.518Z,9.93
2017-11-19T02:54:28.010Z,11.05
2017-11-19T02:56:55.538Z,9.68
2017-11-19T02:59:23.111Z,11.15
2017-11-19T03:01:50.650Z,10.73
2017-11-19T03:04:18.877Z,9.98
2017-11-19T03:06:46.347Z,10.80
2017-11-19T03:09:13.802Z,10.85
2017-11-19T03:11:42.034Z,11.70
2017-11-19T03:14:09.509Z,11.15
2017-11-19T03:16:36.948Z,11.23
2017-11-19T03:19:05.197Z,11.85
2017-11-19T03:21:33.626Z,10.98
2017-11-19T03:24:02.920Z,11.12
2017-11-19T03:26:30.734Z,10.88
2017-11-19T03:28:58.982Z,12.63
2017-11-19T03:31:26.487Z,11.25
2017-11-19T03:33:53.964Z,11.68
2017-11-19T03:36:21.393Z,11.02
2017-11-19T03:38:49.457Z,10.38
2017-11-19T03:41:17.940Z,11.55
2017-11-19T03:43:45.491Z,11.32
2017-11-19T03:46:12.946Z,11.25
2017-11-19T03:48:40.563Z,13.23
2017-11-19T03:51:08.071Z,11.52
2017-11-19T03:53:35.752Z,12.10
2017-11-19T03:56:04.799Z,11.30
2017-11-19T03:58:32.240Z,11.15
2017-11-19T04:00:59.702Z,10.98
2017-11-19T04:03:27.159Z,11.38
2017-11-19T04:05:54.727Z,10.90
2017-11-19T04:08:22.197Z,8.55
2017-11-19T04:10:49.647Z,6.50
2017-11-19T04:16:01.174Z,4.15
2017-11-19T04:18:28.631Z,4.37
2017-11-19T04:20:56.236Z,3.58
2017-11-19T04:23:23.684Z,3.70
2017-11-19T04:25:54.956Z,3.35
2017-11-19T04:28:22.535Z,3.75
2017-11-19T04:30:49.994Z,3.92
2017-11-19T04:33:17.453Z,2.35
2017-11-19T04:35:44.918Z,2.85
2017-11-19T04:38:13.130Z,2.65
2017-11-19T04:40:40.602Z,2.75
2017-11-19T04:43:08.640Z,2.83
2017-11-19T04:45:36.105Z,2.15
2017-11-19T04:48:03.541Z,2.05
2017-11-19T04:50:30.985Z,2.50
2017-11-19T04:52:59.256Z,1.92
2017-11-19T04:55:26.699Z,1.90
2017-11-19T04:57:54.162Z,2.30
2017-11-19T05:00:21.601Z,2.33
2017-11-19T05:02:49.072Z,2.12
2017-11-19T05:05:16.513Z,2.08
2017-11-19T05:07:44.003Z,2.67
2017-11-19T05:10:11.465Z,2.30
2017-11-19T05:12:38.913Z,2.67
2017-11-19T05:15:06.368Z,2.12
2017-11-19T05:17:33.857Z,2.05
2017-11-19T05:20:05.198Z,2.20
2017-11-19T05:22:32.641Z,2.75
2017-11-19T05:25:00.087Z,2.40
2017-11-19T05:27:27.537Z,2.55
2017-11-19T05:29:54.993Z,2.85
2017-11-19T05:32:22.447Z,2.00
2017-11-19T05:34:49.955Z,2.35
2017-11-19T05:37:17.389Z,2.05
2017-11-19T05:39:44.851Z,2.30
2017-11-19T05:42:12.302Z,2.65
2017-11-19T05:44:39.748Z,3.12
2017-11-19T05:47:07.282Z,2.65
2017-11-19T05:49:34.785Z,2.85
2017-11-19T05:52:03.022Z,2.72
2017-11-19T05:54:30.480Z,2.87
2017-11-19T05:56:58.291Z,2.65
2017-11-19T05:59:25.713Z,2.80
2017-11-19T06:01:53.967Z,3.10
2017-11-19T06:04:21.400Z,3.00
2017-11-19T06:06:48.861Z,2.40
2017-11-19T06:09:17.065Z,2.75
2017-11-19T06:11:44.562Z,3.25
2017-11-19T06:14:12.043Z,2.65
2017-11-19T06:16:39.503Z,2.55
2017-11-19T06:19:06.934Z,3.30
2017-11-19T06:21:34.385Z,2.67
2017-11-19T06:24:01.875Z,2.50
2017-11-19T06:26:29.304Z,3.05
2017-11-19T06:28:56.763Z,2.83
2017-11-19T06:31:24.198Z,2.28
2017-11-19T06:33:51.660Z,2.60
2017-11-19T06:36:19.605Z,2.92
2017-11-19T06:38:47.046Z,2.40
2017-11-19T06:41:15.274Z,2.35
2017-11-19T06:43:42.713Z,2.33
2017-11-19T06:46:10.906Z,2.28
2017-11-19T06:48:39.143Z,2.03
2017-11-19T06:51:06.578Z,2.50
2017-11-19T06:53:34.777Z,2.55
2017-11-19T06:56:07.198Z,2.30
2017-11-19T06:58:34.749Z,2.72
2017-11-19T07:01:02.269Z,2.53
2017-11-19T07:03:30.477Z,2.70
2017-11-19T07:05:58.566Z,2.92
2017-11-19T07:08:26.118Z,3.55
2017-11-19T07:10:54.487Z,2.65
2017-11-19T07:13:22.066Z,2.67
2017-11-19T07:15:49.585Z,2.85
2017-11-19T07:18:17.165Z,3.03
2017-11-19T07:20:44.653Z,3.95
2017-11-19T07:23:13.002Z,2.87
2017-11-19T07:25:40.535Z,3.42
2017-11-19T07:28:08.869Z,3.05
2017-11-19T07:30:36.379Z,3.22
2017-11-19T07:33:03.953Z,2.83
2017-11-19T07:35:31.504Z,2.70
2017-11-19T07:37:59.043Z,3.10
2017-11-19T07:40:29.015Z,3.22
2017-11-19T07:42:56.554Z,2.67
2017-11-19T07:45:25.083Z,3.40
2017-11-19T07:47:53.306Z,4.12
2017-11-19T07:50:20.801Z,3.60
2017-11-19T07:52:48.322Z,3.60
2017-11-19T07:55:15.831Z,3.97
2017-11-19T07:57:43.322Z,3.92
2017-11-19T08:00:10.813Z,4.03
2017-11-19T08:02:38.344Z,3.80
2017-11-19T08:05:05.863Z,3.47
2017-11-19T08:07:33.348Z,3.40
2017-11-19T08:10:00.922Z,3.78
2017-11-19T08:12:29.122Z,3.75
2017-11-19T08:14:56.606Z,4.43
2017-11-19T08:17:24.044Z,4.43
2017-11-19T08:19:51.495Z,3.58
2017-11-19T08:22:18.947Z,3.97
2017-11-19T08:24:46.405Z,4.22
2017-11-19T08:27:13.869Z,3.80
2017-11-19T08:29:41.738Z,3.33
2017-11-19T08:32:09.242Z,4.12
2017-11-19T08:34:37.457Z,4.50
2017-11-19T08:37:04.948Z,4.75
2017-11-19T08:39:32.462Z,3.80
2017-11-19T08:42:00.803Z,4.22
2017-11-19T08:44:28.296Z,6.00
2017-11-19T08:46:58.255Z,4.37
2017-11-19T08:49:25.711Z,3.92
2017-11-19T08:51:53.203Z,2.97
2017-11-19T08:54:20.689Z,3.40
2017-11-19T08:56:48.905Z,3.65
2017-11-19T08:59:16.366Z,3.72
2017-11-19T09:01:44.574Z,2.95
2017-11-19T09:04:12.045Z,3.30
2017-11-19T09:06:39.505Z,3.45
2017-11-19T09:09:07.725Z,3.87
2017-11-19T09:11:35.192Z,3.40
2017-11-19T09:14:02.660Z,3.53
2017-11-19T09:16:30.098Z,2.15
2017-11-19T09:18:57.554Z,3.20
2017-11-19T09:21:25.025Z,3.70
2017-11-19T09:23:52.481Z,3.40
2017-11-19T09:26:20.309Z,3.37
2017-11-19T09:28:47.800Z,4.03
2017-11-19T09:31:15.998Z,3.30
2017-11-19T09:33:44.213Z,3.00
2017-11-19T09:36:11.646Z,3.50
2017-11-19T09:38:40.326Z,3.42
2017-11-19T09:41:08.557Z,3.00
2017-11-19T09:43:36.075Z,3.30
2017-11-19T09:46:03.549Z,2.67
2017-11-19T09:48:31.001Z,2.40
2017-11-19T09:50:58.464Z,2.40
2017-11-19T09:53:26.037Z,3.20
2017-11-19T09:55:54.253Z,1.95
2017-11-19T09:58:22.578Z,2.62
2017-11-19T10:00:50.047Z,3.17
2017-11-19T10:03:17.505Z,2.28
2017-11-19T10:05:45.005Z,2.12
2017-11-19T10:08:12.583Z,2.33
2017-11-19T10:10:40.083Z,2.45
2017-11-19T10:13:07.589Z,2.42
2017-11-19T10:15:35.107Z,1.33
2017-11-19T10:18:02.624Z,2.30
2017-11-19T10:20:30.940Z,2.22
2017-11-19T10:22:58.395Z,3.17
2017-11-19T10:25:26.603Z,1.75
2017-11-19T10:27:54.060Z,1.90
2017-11-19T10:30:22.272Z,2.50
2017-11-19T10:32:49.756Z,2.40
2017-11-19T10:35:17.231Z,1.98
2017-11-19T10:37:44.655Z,2.65
2017-11-19T10:40:12.121Z,1.77
2017-11-19T10:42:39.570Z,1.83
2017-11-19T10:45:07.026Z,2.20
2017-11-19T10:47:34.470Z,1.52
2017-11-19T10:50:02.694Z,1.42
2017-11-19T10:52:30.147Z,1.75
2017-11-19T10:54:58.373Z,2.30
2017-11-19T10:57:25.843Z,3.12
2017-11-19T10:59:53.302Z,2.03
2017-11-19T11:02:20.767Z,2.47
2017-11-19T11:04:48.234Z,1.73
2017-11-19T11:07:16.470Z,1.70
2017-11-19T11:09:43.899Z,2.65
2017-11-19T11:12:12.126Z,1.37
2017-11-19T11:14:39.658Z,1.45
2017-11-19T11:17:07.882Z,2.00
2017-11-19T11:19:35.343Z,1.80
2017-11-19T11:22:03.596Z,2.17
2017-11-19T11:24:31.033Z,1.80
2017-11-19T11:26:58.493Z,1.95
2017-11-19T11:29:25.966Z,2.20
2017-11-19T11:31:54.190Z,2.15
2017-11-19T11:34:21.773Z,1.90
2017-11-19T11:36:49.722Z,1.70
2017-11-19T11:39:17.231Z,1.70
2017-11-19T11:41:44.680Z,1.55
2017-11-19T11:44:12.137Z,1.98
2017-11-19T11:46:40.389Z,1.45
2017-11-19T11:49:07.833Z,1.70
2017-11-19T11:51:38.394Z,2.08
2017-11-19T11:54:05.914Z,2.33
2017-11-19T11:56:33.447Z,2.30
2017-11-19T11:59:00.953Z,1.83
2017-11-19T12:01:28.428Z,1.92
2017-11-19T12:03:55.933Z,2.65
2017-11-19T12:06:24.146Z,2.10
2017-11-19T12:08:51.597Z,2.60
2017-11-19T12:11:19.844Z,1.77
2017-11-19T12:13:47.284Z,2.90
2017-11-19T12:16:14.771Z,1.50
2017-11-19T12:18:42.217Z,2.80
2017-11-19T12:21:09.679Z,1.80
2017-11-19T12:23:37.901Z,2.00
2017-11-19T12:26:05.366Z,1.80
2017-11-19T12:28:32.829Z,2.08
2017-11-19T12:31:01.065Z,4.22
2017-11-19T12:33:28.513Z,2.35
2017-11-19T12:35:55.947Z,2.12
2017-11-19T12:38:23.413Z,2.00
2017-11-19T12:40:55.650Z,2.00
2017-11-19T12:43:23.093Z,2.10
2017-11-19T12:45:51.313Z,1.95
2017-11-19T12:48:18.757Z,2.00
2017-11-19T12:50:47.021Z,1.90
2017-11-19T12:53:14.467Z,1.98
2017-11-19T12:55:41.946Z,2.47
2017-11-19T12:58:09.421Z,2.22
2017-11-19T13:00:36.932Z,2.40
2017-11-19T13:03:04.348Z,2.87
2017-11-19T13:05:31.823Z,2.60
2017-11-19T13:07:59.269Z,2.50
2017-11-19T13:10:27.530Z,2.00
2017-11-19T13:12:55.024Z,3.78
2017-11-19T13:15:22.460Z,2.03
2017-11-19T13:17:49.934Z,2.33
2017-11-19T13:20:17.363Z,2.60
2017-11-19T13:22:44.809Z,3.03
2017-11-19T13:25:12.279Z,2.33
2017-11-19T13:27:39.739Z,1.80
2017-11-19T13:30:07.175Z,2.20
2017-11-19T13:32:35.410Z,2.97
2017-11-19T13:35:02.864Z,3.12
2017-11-19T13:37:31.131Z,2.60
2017-11-19T13:39:59.339Z,2.30
2017-11-19T13:42:26.805Z,2.35
2017-11-19T13:44:55.033Z,2.42
2017-11-19T13:47:22.470Z,2.62
2017-11-19T13:49:50.695Z,2.62
2017-11-19T13:52:18.650Z,2.15
2017-11-19T13:54:46.987Z,2.60
2017-11-19T13:57:14.557Z,1.90
2017-11-19T13:59:42.018Z,2.78
2017-11-19T14:02:09.573Z,3.37
2017-11-19T14:04:37.794Z,3.22
2017-11-19T14:07:05.310Z,2.12
2017-11-19T14:09:32.800Z,2.33
2017-11-19T14:12:00.231Z,2.55
2017-11-19T14:14:27.672Z,1.87
2017-11-19T14:16:55.962Z,2.03
2017-11-19T14:19:23.518Z,2.92
2017-11-19T14:21:50.974Z,2.25
2017-11-19T14:24:18.430Z,2.45
2017-11-19T14:26:45.959Z,2.60
2017-11-19T14:29:14.186Z,3.62
2017-11-19T14:31:41.722Z,2.30
2017-11-19T14:34:09.969Z,1.90
2017-11-19T14:36:38.261Z,2.92
2017-11-19T14:39:05.782Z,2.20
2017-11-19T14:41:34.012Z,2.95
2017-11-19T14:44:01.570Z,2.70
2017-11-19T14:46:29.025Z,2.58
2017-11-19T14:48:57.237Z,3.83
2017-11-19T14:51:24.713Z,2.15
2017-11-19T14:53:52.182Z,3.75
2017-11-19T14:56:20.438Z,2.83
2017-11-19T14:58:47.982Z,2.70
2017-11-19T15:01:15.426Z,2.53
2017-11-19T15:03:42.927Z,2.87
2017-11-19T15:06:10.458Z,3.30
2017-11-19T15:08:37.902Z,2.97
2017-11-19T15:11:05.453Z,3.58
2017-11-19T15:13:32.974Z,2.50
2017-11-19T15:16:00.757Z,2.75
2017-11-19T15:18:28.297Z,2.45
2017-11-19T15:20:55.828Z,3.33
2017-11-19T15:23:24.128Z,3.10
2017-11-19T15:25:52.331Z,3.58
2017-11-19T15:28:19.785Z,4.85
2017-11-19T15:30:48.103Z,3.35
2017-11-19T15:33:15.537Z,3.17
2017-11-19T15:35:43.081Z,3.20
2017-11-19T15:38:10.514Z,3.90
2017-11-19T15:40:38.862Z,3.83
2017-11-19T15:43:06.301Z,3.08
2017-11-19T15:45:33.776Z,3.37
2017-11-19T15:48:01.304Z,2.62
2017-11-19T15:50:28.866Z,2.85
2017-11-19T15:52:56.426Z,2.47
2017-11-19T15:55:23.876Z,3.20
2017-11-19T15:57:51.433Z,2.65
2017-11-19T16:00:19.696Z,2.65
2017-11-19T16:02:47.154Z,2.78
2017-11-19T16:05:14.677Z,3.42
2017-11-19T16:07:42.903Z,2.92
2017-11-19T16:10:10.358Z,3.20
2017-11-19T16:12:37.851Z,3.17
2017-11-19T16:15:05.316Z,4.22
2017-11-19T16:17:32.753Z,3.20
2017-11-19T16:20:00.262Z,3.87
2017-11-19T16:22:28.472Z,3.10
2017-11-19T16:24:55.969Z,3.20
2017-11-19T16:27:23.477Z,3.55
2017-11-19T16:29:50.966Z,3.42
2017-11-19T16:32:19.270Z,3.33
2017-11-19T16:34:47.469Z,3.50
2017-11-19T16:37:14.935Z,3.95
2017-11-19T16:39:43.264Z,4.15
2017-11-19T16:42:10.791Z,4.35
2017-11-19T16:44:38.291Z,6.22
2017-11-19T16:47:05.852Z,3.03
2017-11-19T16:49:34.140Z,5.47
2017-11-19T16:52:02.339Z,4.37
2017-11-19T16:54:30.577Z,4.25
2017-11-19T16:56:59.022Z,3.05
2017-11-19T16:59:27.239Z,3.20
2017-11-19T17:01:58.686Z,3.37
2017-11-19T17:04:28.192Z,3.80
2017-11-19T17:06:55.666Z,3.45
2017-11-19T17:09:24.991Z,4.00
2017-11-19T17:11:53.534Z,4.03
2017-11-19T17:14:22.051Z,2.90
2017-11-19T17:16:49.590Z,3.55
2017-11-19T17:19:17.071Z,3.30
2017-11-19T17:21:44.508Z,3.22
2017-11-19T17:24:12.220Z,3.67
2017-11-19T17:26:44.461Z,5.15
2017-11-19T17:29:16.846Z,4.20
2017-11-19T17:31:44.429Z,3.50
2017-11-19T17:34:12.285Z,3.53
2017-11-19T17:36:44.864Z,3.17
2017-11-19T17:39:12.402Z,3.28
2017-11-19T17:41:40.669Z,3.70
2017-11-19T17:44:08.646Z,2.95
2017-11-19T17:46:36.204Z,2.87
2017-11-19T17:49:03.960Z,3.20
2017-11-19T17:51:31.794Z,4.03
2017-11-19T17:53:59.332Z,3.85
2017-11-19T17:56:27.111Z,3.60
2017-11-19T17:58:54.895Z,3.55
2017-11-19T18:01:22.371Z,3.90
2017-11-19T18:03:49.985Z,3.95
2017-11-19T18:06:17.423Z,3.83
2017-11-19T18:08:44.901Z,3.80
2017-11-19T18:11:12.485Z,3.78
2017-11-19T18:13:40.443Z,3.53
2017-11-19T18:16:09.035Z,4.10
2017-11-19T18:18:36.758Z,3.25
2017-11-19T18:21:04.720Z,5.53
2017-11-19T18:23:32.429Z,3.22
2017-11-19T18:26:01.970Z,3.87
2017-11-19T18:28:29.881Z,3.42
2017-11-19T18:30:58.156Z,3.55
2017-11-19T18:33:25.958Z,4.47
2017-11-19T18:35:54.870Z,3.42
2017-11-19T18:38:31.846Z,3.95
2017-11-19T18:40:59.376Z,4.43
2017-11-19T18:43:27.499Z,4.50
2017-11-19T18:45:55.020Z,6.03
2017-11-19T18:48:23.009Z,5.28
2017-11-19T18:50:54.587Z,5.78
2017-11-19T18:53:22.612Z,5.47
2017-11-19T18:55:50.434Z,4.93
2017-11-19T18:58:19.150Z,3.55
2017-11-19T19:00:48.132Z,5.07
2017-11-19T19:03:15.755Z,3.45
2017-11-19T19:05:43.190Z,3.97
2017-11-19T19:08:11.480Z,4.20
2017-11-19T19:10:39.771Z,4.10
2017-11-19T19:13:07.380Z,5.10
2017-11-19T19:15:34.986Z,3.70
2017-11-19T19:18:03.200Z,4.30
2017-11-19T19:20:30.694Z,3.90
2017-11-19T19:22:58.136Z,4.28
2017-11-19T19:25:25.802Z,4.62
2017-11-19T19:27:53.353Z,3.83
2017-11-19T19:30:20.842Z,4.50
2017-11-19T19:32:48.615Z,4.05
2017-11-19T19:35:16.108Z,4.47
2017-11-19T19:37:45.234Z,4.20
2017-11-19T19:40:12.770Z,4.12
2017-11-19T19:42:41.961Z,4.05
2017-11-19T19:45:10.640Z,4.35
2017-11-19T19:47:39.942Z,4.60
2017-11-19T19:50:11.521Z,4.65
2017-11-19T19:52:39.055Z,4.78
2017-11-19T19:55:06.928Z,4.97
2017-11-19T19:57:39.325Z,4.35
2017-11-19T20:00:12.273Z,4.82
2017-11-19T20:02:40.577Z,4.80
2017-11-19T20:05:08.658Z,6.28
2017-11-19T20:07:39.833Z,4.55
2017-11-19T20:10:11.099Z,3.53
2017-11-19T20:12:39.688Z,3.70
2017-11-19T20:15:07.877Z,3.45
2017-11-19T20:17:35.477Z,3.83
2017-11-19T20:20:02.966Z,3.90
2017-11-19T20:22:31.682Z,3.45
2017-11-19T20:25:00.318Z,3.62
2017-11-19T20:27:28.145Z,3.72
2017-11-19T20:29:55.760Z,4.32
2017-11-19T20:32:23.375Z,3.90
2017-11-19T20:34:52.637Z,4.20
2017-11-19T20:37:21.242Z,3.25
2017-11-19T20:39:54.153Z,3.37
2017-11-19T20:42:21.608Z,3.65
2017-11-19T20:44:49.376Z,3.78
2017-11-19T20:47:17.642Z,3.37
2017-11-19T20:49:45.930Z,3.47
2017-11-19T20:52:13.750Z,3.12
2017-11-19T20:54:42.240Z,4.03
2017-11-19T20:57:11.871Z,3.95
2017-11-19T20:59:40.227Z,3.33
2017-11-19T21:02:07.693Z,4.87
2017-11-19T21:04:35.966Z,4.25
2017-11-19T21:07:03.462Z,3.58
2017-11-19T21:09:32.409Z,4.05
2017-11-19T21:12:01.022Z,3.50
2017-11-19T21:14:28.633Z,4.25
2017-11-19T21:16:56.128Z,4.22
2017-11-19T21:19:23.685Z,3.90
2017-11-19T21:21:51.457Z,4.60
2017-11-19T21:24:18.922Z,4.15
2017-11-19T21:26:48.069Z,4.40
2017-11-19T21:29:15.566Z,4.05
2017-11-19T21:31:43.094Z,4.97
2017-11-19T21:34:10.770Z,4.37
2017-11-19T21:36:38.860Z,3.85
2017-11-19T21:39:06.666Z,4.32
2017-11-19T21:41:34.346Z,3.55
2017-11-19T21:44:03.677Z,3.12
2017-11-19T21:46:31.683Z,3.85
2017-11-19T21:48:59.227Z,3.92
2017-11-19T21:51:27.328Z,3.85
2017-11-19T21:53:55.091Z,3.53
2017-11-19T21:56:22.862Z,4.30
2017-11-19T21:58:51.464Z,4.65
2017-11-19T22:01:18.957Z,3.22
2017-11-19T22:03:46.460Z,3.60
2017-11-19T22:06:14.649Z,3.60
2017-11-19T22:08:42.176Z,3.67
2017-11-19T22:11:09.641Z,3.90
2017-11-19T22:13:37.593Z,4.20
2017-11-19T22:16:05.789Z,4.82
2017-11-19T22:18:33.341Z,4.55
2017-11-19T22:21:00.949Z,4.75
2017-11-19T22:23:28.447Z,4.15
2017-11-19T22:25:56.700Z,4.15
2017-11-19T22:28:24.192Z,4.68
2017-11-19T22:30:53.280Z,5.57
2017-11-19T22:33:20.755Z,6.15
2017-11-19T22:35:48.234Z,4.05
2017-11-19T22:38:15.734Z,5.35
2017-11-19T22:40:44.472Z,4.65
2017-11-19T22:43:13.485Z,4.47
2017-11-19T22:45:40.923Z,4.10
2017-11-19T22:48:09.164Z,4.15
2017-11-19T22:50:40.976Z,4.40
2017-11-19T22:53:08.438Z,3.83
2017-11-19T22:55:36.153Z,4.10
2017-11-19T22:58:04.381Z,5.18
2017-11-19T23:00:31.869Z,6.30
2017-11-19T23:02:59.364Z,5.10
2017-11-19T23:05:26.809Z,4.60
2017-11-19T23:07:54.253Z,4.40
2017-11-19T23:10:22.548Z,4.05
2017-11-19T23:12:51.091Z,4.85
2017-11-19T23:15:19.257Z,3.90
2017-11-19T23:17:47.496Z,5.03
2017-11-19T23:20:17.192Z,3.58
2017-11-19T23:22:45.883Z,3.87
2017-11-19T23:25:17.403Z,4.90
2017-11-19T23:27:50.010Z,3.40
2017-11-19T23:30:17.473Z,4.43
2017-11-19T23:32:44.974Z,4.78
2017-11-19T23:35:13.178Z,4.85
2017-11-19T23:37:44.714Z,3.72
2017-11-19T23:40:12.496Z,4.40
2017-11-19T23:42:41.439Z,4.37
2017-11-19T23:45:09.290Z,4.10
2017-11-19T23:47:37.647Z,4.10
2017-11-19T23:50:05.193Z,4.55
2017-11-19T23:52:36.489Z,4.28
2017-11-19T23:55:03.975Z,4.47
2017-11-19T23:57:31.424Z,3.78
2017-11-19T23:59:58.909Z,4.00
